ADDS METAR Data INFO
IDs: Format: Raw Decoded Include TAF

Data at: 1312 UTC 19 Jul 2018

KAEJ 191255Z AUTO 00000KT 10SM CLR 13/04 A3040 RMK AO2 T01330038
KAEJ 191235Z AUTO 00000KT 10SM CLR 13/04 A3040 RMK AO2 T01270035
KAEJ 191215Z AUTO 00000KT 10SM CLR 13/04 A3040 RMK AO2 T01310036
KAEJ 191155Z AUTO 00000KT 10SM CLR 13/03 A3038 RMK AO2 7//// T01330034 10186 20127
KAEJ 191135Z AUTO 32004KT 10SM CLR 14/04 A3038 RMK AO2 T01350035
KAEJ 191115Z AUTO 00000KT 10SM CLR 14/04 A3038 RMK AO2 T01380037
KAEJ 191055Z AUTO 00000KT 10SM CLR 14/03 A3038 RMK AO2 T01360032
KAEJ 191035Z AUTO 32005KT 10SM CLR 15/03 A3037 RMK AO2 T01450031
KAEJ 191015Z AUTO 00000KT 10SM CLR 14/03 A3037 RMK AO2 T01430032
KAEJ 190955Z AUTO 34003KT 10SM CLR 14/03 A3036 RMK AO2 T01370030
KAEJ 190935Z AUTO 29006KT 10SM CLR 15/03 A3036 RMK AO2 T01540030
KAEJ 190915Z AUTO 30006KT 10SM CLR 14/03 A3037 RMK AO2 T01370031
KAEJ 190855Z AUTO 25004KT 10SM CLR 14/03 A3037 RMK AO2 T01390027
KAEJ 190835Z AUTO 00000KT 10SM SCT070 SCT080 15/03 A3036 RMK AO2 T01540027
KAEJ 190815Z AUTO 00000KT 10SM BKN070 BKN080 14/03 A3036 RMK AO2 T01410027
KAEJ 190755Z AUTO 33004KT 10SM CLR 15/03 A3036 RMK AO2 T01450025
KAEJ 190735Z AUTO 00000KT 10SM CLR 16/02 A3037 RMK AO2 T01630023
KAEJ 190715Z AUTO 30008KT 10SM CLR 18/02 A3037 RMK AO2 T01770020
KAEJ 190655Z AUTO 32009KT 10SM CLR 19/02 A3037 RMK AO2 T01850016
KAEJ 190635Z AUTO 32006KT 10SM CLR 17/02 A3037 RMK AO2 T01680020
KAEJ 190615Z AUTO 03003KT 10SM SCT075 18/02 A3037 RMK AO2 T01790015
KAEJ 190555Z AUTO 32003KT 10SM BKN075 18/02 A3037 RMK AO2 T01770019 10295 20176
KAEJ 190535Z AUTO 29004KT 10SM SCT075 18/02 A3037 RMK AO2 T01810015
KAEJ 190515Z AUTO 00000KT 10SM CLR 19/02 A3037 RMK AO2 T01900015
KAEJ 190455Z AUTO 27005KT 10SM CLR 18/01 A3037 RMK AO2 T01770012
KAEJ 190435Z AUTO 32006KT 10SM CLR 20/01 A3037 RMK AO2 T01970012
KAEJ 190415Z AUTO 32007KT 10SM CLR 20/01 A3037 RMK AO2 T01970010
KAEJ 190355Z AUTO 32005KT 10SM CLR 21/01 A3037 RMK AO2 T02060007
KAEJ 190335Z AUTO 29005KT 10SM CLR 20/01 A3037 RMK AO2 T01980007
KAEJ 190315Z AUTO 31003KT 10SM CLR 21/00 A3036 RMK AO2 T02060002
KAEJ 190255Z AUTO 31005KT 10SM CLR 21/00 A3035 RMK AO2 T02090000
KAEJ 190235Z AUTO 28004KT 10SM CLR 23/00 A3034 RMK AO2 T02281001
KAEJ 190215Z AUTO 32005KT 10SM CLR 25/00 A3033 RMK AO2 T02461005
KAEJ 190155Z AUTO 31006KT 10SM CLR 26/M01 A3033 RMK AO2 T02621014
KAEJ 190135Z AUTO 32010G14KT 10SM CLR 27/M01 A3032 RMK AO2 T02701015
KAEJ 190115Z AUTO 31009KT 10SM CLR 28/M02 A3032 RMK AO2 T02781021
KAEJ 190055Z AUTO 32011G15KT 10SM CLR 28/M02 A3032 RMK AO2 T02751025
KAEJ 190035Z AUTO 33014KT 10SM CLR 29/M02 A3032 RMK AO2 T02851025
KAEJ 190015Z AUTO 33013KT 10SM CLR 29/M03 A3032 RMK AO2 T02941031
KAEJ 182355Z AUTO 31011G14KT 10SM SCT120 30/M03 A3032 RMK AO2 6//// T02961034
KAEJ 182335Z AUTO 32010G15KT 10SM SCT120 29/M04 A3032 RMK AO2 T02921037
KAEJ 182315Z AUTO 34012G15KT 10SM CLR 28/M05 A3032 RMK AO2 T02821046
KAEJ 182255Z AUTO 34012G16KT 10SM CLR 29/M04 A3032 RMK AO2 T02911045
KAEJ 182235Z AUTO 26004KT 10SM CLR 29/M05 A3033 RMK AO2 T02861049
KAEJ 182215Z AUTO 25005KT 10SM CLR 29/M06 A3033 RMK AO2 T02881059
KAEJ 182155Z AUTO 33011G20KT 10SM CLR 30/M06 A3034 RMK AO2 T02981059
KAEJ 182135Z AUTO 31013G19KT 10SM CLR 30/M06 A3035 RMK AO2 T03041062
KAEJ 182115Z AUTO 30005G15KT 10SM CLR 30/M06 A3035 RMK AO2 T02961057
KAEJ 182055Z AUTO 32010G17KT 10SM CLR 30/M06 A3036 RMK AO2 6//// T02951056
KAEJ 182035Z AUTO 29007G19KT 10SM SCT120 30/M06 A3037 RMK AO2 T02971059
KAEJ 182015Z AUTO 32011G20KT 10SM SCT120 30/M06 A3037 RMK AO2 T02951060
KAEJ 181955Z AUTO 29003KT 10SM 29/M05 A3038 RMK AO2 T02891051
KAEJ 181935Z AUTO 29006KT A3038 RMK AO2 PWINO
KAEJ 181915Z AUTO 29009G20KT 10SM CLR 29/M06 A3038 RMK AO2 T02901056 PWINO
KAEJ 181815Z AUTO 34011G22KT 10SM CLR 28/M03 A3040 RMK AO2 T02821034
KAEJ 181755Z AUTO 30012G22KT 270V330 10SM CLR 29/M04 A3039 RMK AO2 T02881044 10288 20092
KAEJ 181735Z AUTO 35005KT 10SM SCT100 27/M02 A3040 RMK AO2 T02691025
KAEJ 181715Z AUTO 35004KT 10SM CLR 26/00 A3040 RMK AO2 T02580003
KAEJ 181655Z AUTO 00000KT 10SM CLR 24/03 A3042 RMK AO2 T02390034
KAEJ 181635Z AUTO 14003KT 10SM CLR 23/04 A3042 RMK AO2 T02290037
KAEJ 181615Z AUTO 10005KT 10SM CLR 22/06 A3043 RMK AO2 T02160055
KAEJ 181555Z AUTO 11004KT 10SM CLR 21/07 A3044 RMK AO2 T02100068
KAEJ 181535Z AUTO 10003KT 10SM CLR 20/07 A3044 RMK AO2 T02000070
KAEJ 181515Z AUTO 00000KT 10SM CLR 19/09 A3045 RMK AO2 T01880088
KAEJ 181455Z AUTO 08003KT 10SM CLR 18/09 A3045 RMK AO2 T01800085
KAEJ 181435Z AUTO 00000KT 10SM CLR 17/08 A3045 RMK AO2 T01690075
KAEJ 181415Z AUTO 00000KT 10SM CLR 16/08 A3045 RMK AO2 T01590081
KAEJ 181355Z AUTO 00000KT 10SM CLR 14/08 A3045 RMK AO2 T01400083
KAEJ 181335Z AUTO 35003KT 10SM CLR 14/08 A3045 RMK AO2 T01380081
KAEJ 181315Z AUTO 29003KT 10SM CLR 12/08 A3045 RMK AO2 T01210079
KAEJ 181255Z AUTO 00000KT 10SM CLR 11/08 A3045 RMK AO2 T01100076
KAEJ 181235Z AUTO 01003KT 10SM CLR 10/08 A3045 RMK AO2 T01040080
KAEJ 181215Z AUTO 35003KT 10SM CLR 09/07 A3044 RMK AO2 T00930071
KAEJ 181155Z AUTO 00000KT 10SM CLR 10/07 A3044 RMK AO2 T00950068 10138 20095
KAEJ 181135Z AUTO 27006KT 10SM CLR 10/07 A3043 RMK AO2 T00980069
KAEJ 181115Z AUTO 00000KT 10SM CLR 10/08 A3043 RMK AO2 T01020076
KAEJ 181055Z AUTO 00000KT 10SM CLR 10/08 A3042 RMK AO2 T01030077
KAEJ 181035Z AUTO 01003KT 10SM CLR 10/07 A3042 RMK AO2 T00990072
KAEJ 181015Z AUTO 29003KT 10SM CLR 10/07 A3043 RMK AO2 T00980071
KAEJ 180955Z AUTO 25004KT 10SM CLR 10/07 A3043 RMK AO2 T00970074
KAEJ 180935Z AUTO 00000KT 10SM CLR 11/08 A3043 RMK AO2 T01110081
KAEJ 180915Z AUTO 00000KT 10SM CLR 10/08 A3044 RMK AO2 T01020076
KAEJ 180855Z AUTO 34004KT 10SM CLR 12/08 A3044 RMK AO2 T01150082
KAEJ 180835Z AUTO 30003KT 10SM CLR 12/08 A3044 RMK AO2 T01170079
KAEJ 180815Z AUTO 00000KT 10SM CLR 12/09 A3044 RMK AO2 T01200085
KAEJ 180755Z AUTO 29004KT 10SM CLR 11/09 A3044 RMK AO2 T01120086
KAEJ 180735Z AUTO 31004KT 10SM CLR 11/09 A3044 RMK AO2 T01090085
KAEJ 180715Z AUTO 27004KT 10SM CLR 11/09 A3044 RMK AO2 T01120085
KAEJ 180655Z AUTO 26003KT 10SM CLR 13/09 A3044 RMK AO2 T01250087
KAEJ 180635Z AUTO 00000KT 10SM CLR 12/09 A3043 RMK AO2 T01230087
KAEJ 180615Z AUTO 00000KT 10SM CLR 13/09 A3044 RMK AO2 T01310090
KAEJ 180555Z AUTO 00000KT 10SM CLR 13/09 A3044 RMK AO2 T01330091 10270 20124 402790105
KAEJ 180535Z AUTO 00000KT 10SM CLR 13/09 A3044 RMK AO2 T01340092
KAEJ 180515Z AUTO 35003KT 10SM CLR 13/10 A3044 RMK AO2 T01280096
KAEJ 180455Z AUTO 25004KT 10SM CLR 13/10 A3044 RMK AO2 T01320097
KAEJ 180435Z AUTO 26004KT 10SM CLR 14/10 A3045 RMK AO2 T01370099
KAEJ 180415Z AUTO 00000KT 10SM CLR 14/10 A3045 RMK AO2 T01430097
KAEJ 180355Z AUTO 32004KT 10SM CLR 14/10 A3044 RMK AO2 T01400098
KAEJ 180335Z AUTO 29006KT 10SM CLR 14/10 A3044 RMK AO2 T01410100
KAEJ 180315Z AUTO 00000KT 10SM CLR 15/10 A3044 RMK AO2 T01500096
KAEJ 180255Z AUTO 07003KT 10SM VCTS CLR 15/10 A3043 RMK AO2 LTG DSNT SE T01480100
KAEJ 180235Z AUTO 12011G18KT 10SM TS CLR 16/11 A3042 RMK AO2 LTG DSNT SE T01580108
KAEJ 180215Z AUTO 11012G17KT 10SM -TSRA SCT075 BKN085 17/13 A3042 RMK AO2 LTG DSNT E AND SE T01700125
KAEJ 180155Z AUTO 13010G17KT 10SM -TSRA OVC075 18/12 A3040 RMK AO2 LTG DSNT NE THRU S T01840118
KAEJ 180135Z AUTO 06015G20KT 10SM -TSRA BKN075 OVC095 21/09 A3038 RMK AO2 LTG DSNT NE THRU SE T02120094
KAEJ 180115Z AUTO 07007KT 10SM TS SCT075 BKN095 23/09 A3037 RMK AO2 LTG DSNT N AND NE T02320087